createdAt,value
2023-05-25T00:43:05.871Z,51.77
2023-05-25T00:45:33.420Z,51.67
2023-05-25T00:48:01.985Z,52.00
2023-05-25T00:50:38.332Z,51.73
2023-05-25T00:53:06.474Z,51.47
2023-05-25T00:55:38.087Z,51.71
2023-05-25T00:58:08.984Z,51.62
2023-05-25T01:00:38.752Z,52.18
2023-05-25T01:03:12.511Z,51.35
2023-05-25T01:05:45.026Z,52.01
2023-05-25T01:08:14.806Z,51.73
2023-05-25T01:10:44.125Z,51.89
2023-05-25T01:13:15.586Z,52.01
2023-05-25T01:15:43.361Z,52.25
2023-05-25T01:18:15.090Z,51.99
2023-05-25T01:20:55.053Z,52.62
2023-05-25T01:23:29.822Z,52.90
2023-05-25T01:26:02.370Z,52.59
2023-05-25T01:28:36.160Z,52.75
2023-05-25T01:31:04.332Z,52.77
2023-05-25T01:33:33.022Z,52.29
2023-05-25T01:36:02.414Z,52.28
2023-05-25T01:38:29.965Z,52.46
2023-05-25T01:40:57.558Z,52.62
2023-05-25T01:43:25.115Z,52.81
2023-05-25T01:46:03.612Z,53.44
2023-05-25T01:48:38.597Z,53.03
2023-05-25T01:51:16.114Z,52.63
2023-05-25T01:53:46.733Z,52.64
2023-05-25T01:56:15.525Z,52.72
2023-05-25T01:58:44.629Z,52.92
2023-05-25T02:01:15.923Z,52.88
2023-05-25T02:03:44.811Z,53.05
2023-05-25T02:06:13.801Z,53.02
2023-05-25T02:08:41.373Z,53.17
2023-05-25T02:11:08.930Z,53.31
2023-05-25T02:13:36.519Z,53.73
2023-05-25T02:16:04.321Z,53.77
2023-05-25T02:18:32.064Z,54.30
2023-05-25T02:20:59.625Z,54.03
2023-05-25T02:23:28.527Z,54.21
2023-05-25T02:25:56.149Z,54.27
2023-05-25T02:28:23.729Z,54.19
2023-05-25T02:30:51.516Z,55.07
2023-05-25T02:33:20.248Z,54.64
2023-05-25T02:35:47.891Z,55.58
2023-05-25T02:38:15.637Z,56.00
2023-05-25T02:40:46.970Z,55.19
2023-05-25T02:43:14.537Z,55.58
2023-05-25T02:45:42.197Z,54.64
2023-05-25T02:48:09.914Z,55.68
2023-05-25T02:50:37.510Z,55.13
2023-05-25T02:53:05.575Z,54.87
2023-05-25T02:55:33.330Z,54.99
2023-05-25T02:58:02.255Z,54.97
2023-05-25T03:00:29.802Z,55.50
2023-05-25T03:02:57.375Z,55.32
2023-05-25T03:05:24.935Z,55.63
2023-05-25T03:07:52.667Z,57.61
2023-05-25T03:10:20.620Z,57.42
2023-05-25T03:12:48.192Z,56.12
2023-05-25T03:15:17.247Z,56.22
2023-05-25T03:17:44.874Z,56.02
2023-05-25T03:20:15.517Z,57.47
2023-05-25T03:22:43.230Z,56.56
2023-05-25T03:25:12.449Z,56.55
2023-05-25T03:27:40.090Z,56.81
2023-05-25T03:30:09.194Z,57.80
2023-05-25T03:32:38.097Z,57.02
2023-05-25T03:35:06.527Z,57.00
2023-05-25T03:37:34.485Z,57.06
2023-05-25T03:40:02.405Z,57.17
2023-05-25T03:42:29.971Z,57.27
2023-05-25T03:44:57.481Z,57.26
2023-05-25T03:47:25.066Z,57.64
2023-05-25T03:49:53.979Z,57.55
2023-05-25T03:52:21.528Z,57.52
2023-05-25T03:54:50.006Z,58.04
2023-05-25T03:57:17.559Z,57.80
2023-05-25T03:59:45.172Z,57.73
2023-05-25T04:02:12.705Z,57.94
2023-05-25T04:04:41.897Z,57.74
2023-05-25T04:07:10.929Z,57.89
2023-05-25T04:09:38.480Z,58.00
2023-05-25T04:12:06.454Z,58.22
2023-05-25T04:14:34.006Z,58.36
2023-05-25T04:17:01.565Z,58.56
2023-05-25T04:19:29.099Z,58.74
2023-05-25T04:21:56.840Z,58.72
2023-05-25T04:24:25.746Z,58.85
2023-05-25T04:26:53.352Z,58.87
2023-05-25T04:29:21.596Z,58.89
2023-05-25T04:31:49.632Z,59.44
2023-05-25T04:34:17.218Z,59.26
2023-05-25T04:36:45.197Z,59.24
2023-05-25T04:39:12.899Z,59.15
2023-05-25T04:41:43.053Z,59.39
2023-05-25T04:44:10.747Z,59.48
2023-05-25T04:46:38.993Z,59.38
2023-05-25T04:49:08.490Z,59.62
2023-05-25T04:51:36.976Z,59.98
2023-05-25T04:54:04.788Z,59.79
2023-05-25T04:56:32.429Z,59.72
2023-05-25T04:59:01.298Z,59.95
2023-05-25T05:01:29.172Z,60.21
2023-05-25T05:03:57.103Z,60.05
2023-05-25T05:06:25.694Z,60.02
2023-05-25T05:08:53.248Z,60.50
2023-05-25T05:11:20.807Z,60.81
2023-05-25T05:13:48.413Z,60.80
2023-05-25T05:16:17.386Z,60.75
2023-05-25T05:18:45.008Z,60.93
2023-05-25T05:21:12.577Z,60.78
2023-05-25T05:23:40.181Z,60.80
2023-05-25T05:26:10.957Z,60.69
2023-05-25T05:28:38.578Z,60.68
2023-05-25T05:31:06.829Z,60.70
2023-05-25T05:33:35.971Z,60.71
2023-05-25T05:36:04.767Z,60.57
2023-05-25T05:38:32.350Z,60.59
2023-05-25T05:41:00.085Z,60.73
2023-05-25T05:43:27.794Z,60.62
2023-05-25T05:45:55.482Z,60.82
2023-05-25T05:48:23.101Z,60.69
2023-05-25T05:50:52.729Z,60.68
2023-05-25T05:53:20.825Z,60.71
2023-05-25T05:55:49.535Z,60.42
2023-05-25T05:58:19.359Z,60.68
2023-05-25T06:00:46.904Z,60.70
2023-05-25T06:03:14.560Z,60.69
2023-05-25T06:05:42.323Z,60.79
2023-05-25T06:08:11.778Z,60.78
2023-05-25T06:10:39.442Z,60.84
2023-05-25T06:13:07.851Z,60.99
2023-05-25T06:15:35.923Z,60.85
2023-05-25T06:18:03.702Z,60.99
2023-05-25T06:20:31.417Z,60.64
2023-05-25T06:22:59.010Z,60.68
2023-05-25T06:25:27.914Z,60.66
2023-05-25T06:27:55.842Z,60.20
2023-05-25T06:30:23.408Z,60.12
2023-05-25T06:32:50.946Z,60.36
2023-05-25T06:35:19.862Z,60.27
2023-05-25T06:37:48.825Z,59.91
2023-05-25T06:40:16.853Z,60.38
2023-05-25T06:42:45.779Z,59.67
2023-05-25T06:45:14.395Z,59.30
2023-05-25T06:47:41.963Z,59.43
2023-05-25T06:50:10.536Z,59.08
2023-05-25T06:52:38.123Z,59.27
2023-05-25T06:55:12.944Z,59.43
2023-05-25T06:57:49.467Z,59.28
2023-05-25T07:00:24.903Z,60.26
2023-05-25T07:03:09.114Z,59.55
2023-05-25T07:05:45.274Z,58.86
2023-05-25T07:08:20.916Z,58.50
2023-05-25T07:11:01.598Z,58.00
2023-05-25T07:13:38.036Z,58.27
2023-05-25T07:16:11.380Z,57.68
2023-05-25T07:19:13.902Z,58.19
2023-05-25T07:21:53.489Z,58.43
2023-05-25T07:35:14.742Z,56.58
2023-05-25T07:37:53.855Z,56.52
2023-05-25T07:40:30.845Z,56.50
2023-05-25T07:43:12.613Z,56.41
2023-05-25T07:45:47.015Z,56.47
2023-05-25T07:48:14.685Z,55.73
2023-05-25T07:50:42.326Z,55.86
2023-05-25T07:53:11.227Z,55.38
2023-05-25T07:55:38.757Z,55.05
2023-05-25T07:58:07.545Z,55.28
2023-05-25T08:00:35.160Z,55.08
2023-05-25T08:03:03.559Z,54.88
2023-05-25T08:05:31.259Z,55.11
2023-05-25T08:07:59.105Z,54.86
2023-05-25T08:10:32.148Z,54.01
2023-05-25T08:13:02.285Z,54.02
2023-05-25T08:15:29.840Z,54.44
2023-05-25T08:17:57.578Z,53.65
2023-05-25T08:20:26.009Z,54.02
2023-05-25T08:22:54.462Z,53.12
2023-05-25T08:25:22.336Z,52.78
2023-05-25T08:27:51.279Z,52.31
2023-05-25T08:30:18.923Z,52.25
2023-05-25T08:32:46.572Z,52.25
2023-05-25T08:35:14.953Z,52.03
2023-05-25T08:37:43.353Z,51.73
2023-05-25T08:40:15.829Z,50.82
2023-05-25T08:42:43.772Z,51.34
2023-05-25T08:45:26.387Z,50.33
2023-05-25T08:48:02.583Z,50.25
2023-05-25T08:50:32.511Z,50.29
2023-05-25T08:53:06.407Z,50.59
2023-05-25T08:55:37.773Z,50.59
2023-05-25T08:58:11.496Z,50.71
2023-05-25T09:00:46.146Z,49.78
2023-05-25T09:03:19.027Z,50.32
2023-05-25T09:05:47.267Z,50.52
2023-05-25T09:08:17.687Z,50.55
2023-05-25T09:10:45.436Z,50.43
2023-05-25T09:13:22.123Z,49.67
2023-05-25T09:15:52.967Z,49.55
2023-05-25T09:18:20.922Z,50.44
2023-05-25T09:20:50.428Z,49.86
2023-05-25T09:23:18.271Z,49.84
2023-05-25T09:25:47.480Z,49.43
2023-05-25T09:30:45.874Z,49.64
2023-05-25T09:33:17.969Z,49.56
2023-05-25T09:35:46.618Z,49.61
2023-05-25T09:38:16.374Z,49.94
2023-05-25T09:40:44.821Z,49.48
2023-05-25T09:43:21.838Z,49.87
2023-05-25T09:45:53.688Z,49.46
2023-05-25T09:48:23.105Z,50.53
2023-05-25T09:50:50.983Z,50.42
2023-05-25T09:53:18.749Z,49.67
2023-05-25T09:55:53.790Z,49.29
2023-05-25T09:58:24.756Z,49.13
2023-05-25T10:00:55.486Z,48.45
2023-05-25T10:03:24.763Z,49.02
2023-05-25T10:05:53.258Z,49.36
2023-05-25T10:08:23.429Z,48.40
2023-05-25T10:10:51.354Z,47.69
2023-05-25T10:13:21.908Z,47.86
2023-05-25T10:15:53.080Z,48.12
2023-05-25T10:18:26.391Z,47.56
2023-05-25T10:21:01.969Z,47.19
2023-05-25T10:23:36.676Z,47.56
2023-05-25T10:26:08.716Z,46.47
2023-05-25T10:28:38.447Z,47.30
2023-05-25T10:31:06.517Z,46.70
2023-05-25T10:33:38.251Z,46.98
2023-05-25T10:36:11.271Z,46.80
2023-05-25T10:38:40.937Z,48.35
2023-05-25T10:41:11.038Z,46.93
2023-05-25T10:43:39.303Z,47.44
2023-05-25T10:46:07.991Z,46.97
2023-05-25T10:48:40.922Z,45.38
2023-05-25T10:51:11.094Z,45.82
2023-05-25T10:53:39.753Z,45.58
2023-05-25T10:56:10.520Z,45.77
2023-05-25T10:58:42.630Z,46.08
2023-05-25T11:01:12.403Z,45.49
2023-05-25T11:03:54.738Z,45.36
2023-05-25T11:06:23.830Z,45.71
2023-05-25T11:08:54.755Z,45.19
2023-05-25T11:11:23.268Z,45.63
2023-05-25T11:13:51.471Z,45.68
2023-05-25T11:16:24.474Z,45.82
2023-05-25T11:18:57.715Z,45.76
2023-05-25T11:21:44.013Z,45.94
2023-05-25T11:24:16.673Z,46.07
2023-05-25T11:26:55.971Z,45.80
2023-05-25T11:29:26.864Z,45.71
2023-05-25T11:31:55.942Z,46.62
2023-05-25T11:34:26.000Z,45.19
2023-05-25T11:37:01.616Z,45.24
2023-05-25T11:39:29.832Z,45.42
2023-05-25T11:42:02.608Z,45.96
2023-05-25T11:44:31.543Z,45.45
2023-05-25T11:47:02.975Z,44.95
2023-05-25T11:49:31.835Z,45.72
2023-05-25T11:51:59.396Z,45.11
2023-05-25T11:54:28.980Z,44.90
2023-05-25T11:56:59.495Z,44.75
2023-05-25T11:59:29.788Z,44.97
2023-05-25T12:02:00.162Z,44.29
2023-05-25T12:04:28.041Z,44.63
2023-05-25T12:07:04.324Z,44.74
2023-05-25T12:09:32.269Z,44.95
2023-05-25T12:12:00.744Z,43.95
2023-05-25T12:14:28.394Z,45.20
2023-05-25T12:16:56.341Z,44.49
2023-05-25T12:19:24.167Z,43.91
2023-05-25T12:21:52.174Z,44.58
2023-05-25T12:24:21.272Z,44.43
2023-05-25T12:26:49.691Z,44.28
2023-05-25T12:29:17.572Z,43.48
2023-05-25T12:31:45.170Z,43.74
2023-05-25T12:34:13.988Z,44.19
2023-05-25T12:36:43.776Z,44.41
2023-05-25T12:39:12.609Z,44.03
2023-05-25T12:41:50.664Z,43.66
2023-05-25T12:44:25.161Z,42.86
2023-05-25T12:46:55.144Z,42.76
2023-05-25T12:49:31.367Z,42.89
2023-05-25T12:52:00.049Z,43.50
2023-05-25T12:54:40.798Z,43.46
2023-05-25T12:57:11.317Z,43.01
2023-05-25T12:59:39.844Z,43.26
2023-05-25T13:02:08.298Z,43.13
2023-05-25T13:04:36.919Z,43.00
2023-05-25T13:07:04.770Z,42.92
2023-05-25T13:09:32.866Z,42.43
2023-05-25T13:12:00.624Z,42.68
2023-05-25T13:14:30.861Z,43.32
2023-05-25T13:16:58.464Z,43.57
2023-05-25T13:19:26.929Z,43.97
2023-05-25T13:21:55.967Z,43.37
2023-05-25T13:24:24.260Z,43.46
2023-05-25T13:26:51.847Z,43.66
2023-05-25T13:29:19.708Z,43.45
2023-05-25T13:31:48.742Z,42.32
2023-05-25T13:34:16.471Z,42.44
2023-05-25T13:36:44.051Z,43.32
2023-05-25T13:39:13.547Z,43.23
2023-05-25T13:41:41.847Z,43.01
2023-05-25T13:44:11.091Z,42.53
2023-05-25T13:46:38.764Z,42.53
2023-05-25T13:49:07.872Z,42.71
2023-05-25T13:51:35.792Z,42.63
2023-05-25T13:54:04.256Z,43.08
2023-05-25T13:56:32.347Z,43.05
2023-05-25T14:01:28.528Z,42.52
2023-05-25T14:03:57.805Z,42.35
2023-05-25T14:06:27.014Z,42.68
2023-05-25T14:08:54.629Z,41.82
2023-05-25T14:11:28.158Z,41.82
2023-05-25T14:13:56.473Z,41.91
2023-05-25T14:16:24.019Z,41.76
2023-05-25T14:18:51.638Z,41.79
2023-05-25T14:21:19.225Z,41.70
2023-05-25T14:23:48.158Z,42.10
2023-05-25T14:26:15.680Z,42.55
2023-05-25T14:28:43.248Z,42.38
2023-05-25T14:31:12.344Z,42.40
2023-05-25T14:33:42.179Z,42.77
2023-05-25T14:36:10.629Z,41.62
2023-05-25T14:38:38.224Z,42.32
2023-05-25T14:41:07.132Z,41.76
2023-05-25T14:43:34.954Z,41.80
2023-05-25T14:46:02.557Z,41.46
2023-05-25T14:48:30.161Z,42.25
2023-05-25T14:50:59.143Z,41.96
2023-05-25T14:53:26.715Z,41.95
2023-05-25T14:55:54.262Z,42.32
2023-05-25T14:58:23.191Z,43.01
2023-05-25T15:00:50.979Z,42.72
2023-05-25T15:03:18.969Z,42.64
2023-05-25T15:05:46.879Z,42.16
2023-05-25T15:08:14.547Z,41.54
2023-05-25T15:10:42.140Z,42.08
2023-05-25T15:13:10.861Z,41.38
2023-05-25T15:15:41.745Z,41.80
2023-05-25T15:18:09.414Z,41.31
2023-05-25T15:20:37.150Z,41.47
2023-05-25T15:23:04.799Z,41.61
2023-05-25T15:25:47.801Z,41.28
2023-05-25T15:28:15.615Z,41.54
2023-05-25T15:30:44.508Z,41.06
2023-05-25T15:33:14.253Z,41.33
2023-05-25T15:35:42.045Z,41.40
2023-05-25T15:38:09.678Z,41.22
2023-05-25T15:40:37.680Z,41.44
2023-05-25T15:43:05.290Z,40.71
2023-05-25T15:45:32.886Z,40.76
2023-05-25T15:48:01.816Z,41.05
2023-05-25T15:50:29.385Z,41.11
2023-05-25T15:52:56.977Z,41.24
2023-05-25T15:55:24.572Z,41.43
2023-05-25T15:57:52.116Z,41.46
2023-05-25T16:00:20.284Z,40.72
2023-05-25T16:02:47.863Z,41.17
2023-05-25T16:05:16.808Z,41.35
2023-05-25T16:07:44.363Z,40.88
2023-05-25T16:10:12.129Z,40.79
2023-05-25T16:12:39.774Z,41.03
2023-05-25T16:15:08.167Z,40.67
2023-05-25T16:17:35.736Z,40.23
2023-05-25T16:20:03.392Z,40.82
2023-05-25T16:22:32.345Z,40.83
2023-05-25T16:27:27.364Z,41.18
2023-05-25T16:29:54.926Z,40.90
2023-05-25T16:32:22.547Z,41.30
2023-05-25T16:34:50.481Z,41.19
2023-05-25T16:37:18.051Z,40.96
2023-05-25T16:39:46.982Z,41.08
2023-05-25T16:42:14.525Z,40.81
2023-05-25T16:44:42.068Z,40.61
2023-05-25T16:49:37.118Z,40.52
2023-05-25T16:52:05.069Z,40.55
2023-05-25T16:54:32.631Z,40.88
2023-05-25T16:57:01.695Z,40.40
2023-05-25T16:59:29.257Z,40.49
2023-05-25T17:01:56.938Z,40.20
2023-05-25T17:04:24.517Z,40.44
2023-05-25T17:06:52.038Z,40.93
2023-05-25T17:09:19.571Z,40.20
2023-05-25T17:11:47.103Z,40.10
2023-05-25T17:14:16.377Z,40.08
2023-05-25T17:16:43.965Z,40.39
2023-05-25T17:19:14.751Z,40.39
2023-05-25T17:21:42.756Z,40.20
2023-05-25T17:24:10.736Z,40.20
2023-05-25T17:26:38.289Z,40.08
2023-05-25T17:29:06.189Z,40.11
2023-05-25T17:31:35.504Z,40.37
2023-05-25T17:34:03.178Z,40.23
2023-05-25T17:36:30.802Z,40.24
2023-05-25T17:38:58.589Z,40.36
2023-05-25T17:41:26.335Z,40.69
2023-05-25T17:43:53.952Z,40.91
2023-05-25T17:46:21.649Z,40.87
2023-05-25T17:48:50.635Z,40.76
2023-05-25T17:51:20.700Z,40.61
2023-05-25T17:53:48.329Z,40.96
2023-05-25T17:56:15.901Z,40.38
2023-05-25T17:58:47.232Z,40.79
2023-05-25T18:01:15.786Z,40.66
2023-05-25T18:03:43.682Z,40.83
2023-05-25T18:06:12.708Z,41.16
2023-05-25T18:08:40.363Z,41.02
2023-05-25T18:11:07.964Z,40.90
2023-05-25T18:13:35.542Z,41.23
2023-05-25T18:16:03.308Z,41.32
2023-05-25T18:18:31.252Z,41.34
2023-05-25T18:20:59.331Z,41.45
2023-05-25T18:23:28.423Z,41.34
2023-05-25T18:25:56.154Z,41.74
2023-05-25T18:28:23.795Z,42.05
2023-05-25T18:30:51.461Z,41.79
2023-05-25T18:33:19.043Z,41.96
2023-05-25T18:35:47.086Z,41.90
2023-05-25T18:38:14.851Z,42.49
2023-05-25T18:40:43.743Z,42.63
2023-05-25T18:43:11.610Z,42.61
2023-05-25T18:45:39.250Z,42.51
2023-05-25T18:48:08.170Z,42.47
2023-05-25T18:50:35.962Z,42.76
2023-05-25T18:53:03.569Z,43.59
2023-05-25T18:55:31.163Z,43.63
2023-05-25T18:58:00.091Z,43.87
2023-05-25T19:00:27.701Z,44.23
2023-05-25T19:02:55.367Z,44.44
2023-05-25T19:05:24.232Z,44.37
2023-05-25T19:07:58.924Z,44.40
2023-05-25T19:10:27.457Z,44.77
2023-05-25T19:12:55.213Z,45.29
2023-05-25T19:15:24.141Z,45.92
2023-05-25T19:17:52.078Z,45.80
2023-05-25T19:20:19.764Z,46.36
2023-05-25T19:22:47.680Z,46.72
2023-05-25T19:25:15.312Z,47.00
2023-05-25T19:27:42.883Z,47.06
2023-05-25T19:30:10.874Z,47.41
2023-05-25T19:32:39.803Z,48.15
2023-05-25T19:35:07.835Z,48.14
2023-05-25T19:37:37.115Z,48.28
2023-05-25T19:40:06.325Z,48.48
2023-05-25T19:42:33.921Z,48.62
2023-05-25T19:45:01.495Z,48.85
2023-05-25T19:47:29.136Z,49.02
2023-05-25T19:49:58.105Z,49.29
2023-05-25T19:52:25.690Z,49.75
2023-05-25T19:54:53.224Z,49.64
2023-05-25T19:57:20.866Z,49.70
2023-05-25T19:59:50.031Z,49.72
2023-05-25T22:37:44.460Z,53.85
2023-05-25T22:40:13.243Z,54.94
2023-05-25T22:42:40.806Z,54.39
2023-05-25T22:45:09.415Z,54.83
2023-05-25T22:47:37.409Z,56.25
2023-05-25T22:50:18.958Z,55.93
2023-05-25T22:52:52.942Z,54.98
2023-05-25T22:55:28.943Z,54.75
2023-05-25T22:58:02.786Z,54.35
2023-05-25T23:00:40.720Z,54.35
2023-05-25T23:03:21.080Z,54.74
2023-05-25T23:06:00.036Z,55.07
2023-05-25T23:08:46.246Z,54.93
2023-05-25T23:11:29.118Z,55.04
2023-05-25T23:14:08.525Z,55.26
2023-05-25T23:16:46.792Z,56.03
2023-05-25T23:19:25.151Z,55.65
2023-05-25T23:22:13.658Z,55.12
2023-05-25T23:24:49.345Z,55.33
2023-05-25T23:27:28.486Z,55.48
2023-05-25T23:30:04.861Z,55.85
2023-05-25T23:32:41.276Z,56.84
2023-05-25T23:35:19.450Z,55.90
2023-05-25T23:37:52.678Z,56.23
2023-05-25T23:40:32.140Z,56.11
2023-05-25T23:43:05.982Z,55.96
2023-05-25T23:45:49.876Z,56.32
2023-05-25T23:48:27.890Z,56.22
2023-05-25T23:51:06.033Z,56.50
2023-05-25T23:53:44.039Z,56.61
2023-05-25T23:56:25.051Z,56.75
2023-05-25T23:59:03.487Z,57.51
